sensor_id;sensor_type;location;lat;lon;timestamp;pressure;altitude;pressure_sealevel;temperature;humidity
45939;BME280;31650;48.818;9.116;2023-08-12T00:01:57;98324.03;;;18.14;100.00
45939;BME280;31650;48.818;9.116;2023-08-12T00:16:58;98320.09;;;18.04;100.00
45939;BME280;31650;48.818;9.116;2023-08-12T00:31:58;98300.72;;;17.94;100.00
45939;BME280;31650;48.818;9.116;2023-08-12T00:46:59;98299.38;;;17.75;100.00
45939;BME280;31650;48.818;9.116;2023-08-12T01:01:59;98298.03;;;17.50;100.00
45939;BME280;31650;48.818;9.116;2023-08-12T01:17:00;98292.53;;;17.50;100.00
45939;BME280;31650;48.818;9.116;2023-08-12T01:47:11;98270.81;;;17.27;100.00
45939;BME280;31650;48.818;9.116;2023-08-12T02:02:12;98271.78;;;17.15;100.00
45939;BME280;31650;48.818;9.116;2023-08-12T02:17:12;98271.06;;;17.47;100.00
45939;BME280;31650;48.818;9.116;2023-08-12T02:32:13;98248.13;;;17.85;100.00
45939;BME280;31650;48.818;9.116;2023-08-12T02:47:13;98217.81;;;18.13;100.00
45939;BME280;31650;48.818;9.116;2023-08-12T03:02:14;98209.88;;;18.16;100.00
45939;BME280;31650;48.818;9.116;2023-08-12T03:17:16;98203.28;;;18.22;100.00
45939;BME280;31650;48.818;9.116;2023-08-12T03:32:16;98197.84;;;18.33;100.00
45939;BME280;31650;48.818;9.116;2023-08-12T03:47:17;98204.56;;;18.47;100.00
45939;BME280;31650;48.818;9.116;2023-08-12T04:02:22;98193.63;;;18.57;100.00
45939;BME280;31650;48.818;9.116;2023-08-12T04:17:22;98212.41;;;18.70;100.00
45939;BME280;31650;48.818;9.116;2023-08-12T04:32:22;98209.19;;;18.79;100.00
45939;BME280;31650;48.818;9.116;2023-08-12T04:47:23;98186.38;;;18.88;100.00
45939;BME280;31650;48.818;9.116;2023-08-12T05:02:23;98198.25;;;19.04;100.00
45939;BME280;31650;48.818;9.116;2023-08-12T05:17:24;98188.72;;;19.27;100.00
45939;BME280;31650;48.818;9.116;2023-08-12T05:32:24;98211.09;;;19.56;100.00
45939;BME280;31650;48.818;9.116;2023-08-12T05:47:24;98216.03;;;19.44;100.00
45939;BME280;31650;48.818;9.116;2023-08-12T06:02:25;98269.81;;;19.47;100.00
45939;BME280;31650;48.818;9.116;2023-08-12T06:17:26;98224.31;;;19.54;100.00
45939;BME280;31650;48.818;9.116;2023-08-12T06:32:27;98206.75;;;20.12;100.00
45939;BME280;31650;48.818;9.116;2023-08-12T06:47:27;98162.53;;;21.73;100.00
45939;BME280;31650;48.818;9.116;2023-08-12T07:02:29;98131.59;;;22.77;100.00
45939;BME280;31650;48.818;9.116;2023-08-12T07:17:30;98103.97;;;24.18;93.50
45939;BME280;31650;48.818;9.116;2023-08-12T07:32:30;98110.09;;;24.76;84.04
45939;BME280;31650;48.818;9.116;2023-08-12T07:47:30;98091.69;;;27.00;72.43
45939;BME280;31650;48.818;9.116;2023-08-12T08:02:31;98085.50;;;27.29;69.41
45939;BME280;31650;48.818;9.116;2023-08-12T08:17:31;98060.66;;;29.34;60.20
45939;BME280;31650;48.818;9.116;2023-08-12T08:32:32;98063.50;;;29.46;57.08
45939;BME280;31650;48.818;9.116;2023-08-12T08:47:33;98074.94;;;29.41;56.97
45939;BME280;31650;48.818;9.116;2023-08-12T09:02:33;98055.59;;;32.22;54.20
45939;BME280;31650;48.818;9.116;2023-08-12T09:17:35;98055.69;;;32.89;49.96
45939;BME280;31650;48.818;9.116;2023-08-12T09:32:35;98047.88;;;32.98;49.28
45939;BME280;31650;48.818;9.116;2023-08-12T09:47:36;98031.34;;;33.51;44.95
45939;BME280;31650;48.818;9.116;2023-08-12T10:02:36;97999.00;;;33.06;42.51
45939;BME280;31650;48.818;9.116;2023-08-12T10:17:37;98000.84;;;30.17;54.24
45939;BME280;31650;48.818;9.116;2023-08-12T10:32:38;98014.84;;;30.17;55.08
45939;BME280;31650;48.818;9.116;2023-08-12T10:47:42;98008.91;;;31.89;49.24
45939;BME280;31650;48.818;9.116;2023-08-12T11:02:44;97988.19;;;33.08;47.14
45939;BME280;31650;48.818;9.116;2023-08-12T11:17:46;97981.09;;;33.34;44.93
45939;BME280;31650;48.818;9.116;2023-08-12T11:32:48;97941.22;;;32.10;47.48
45939;BME280;31650;48.818;9.116;2023-08-12T11:47:49;97915.50;;;35.09;42.08
45939;BME280;31650;48.818;9.116;2023-08-12T12:02:56;98047.06;;;25.58;95.69
45939;BME280;31650;48.818;9.116;2023-08-12T12:18:00;98149.53;;;23.66;100.00
45939;BME280;31650;48.818;9.116;2023-08-12T12:33:00;98342.31;;;20.87;100.00
45939;BME280;31650;48.818;9.116;2023-08-12T12:48:01;98348.00;;;21.37;100.00
45939;BME280;31650;48.818;9.116;2023-08-12T13:03:01;98373.38;;;21.69;100.00
45939;BME280;31650;48.818;9.116;2023-08-12T13:18:02;98377.75;;;22.36;100.00
45939;BME280;31650;48.818;9.116;2023-08-12T13:33:03;98375.16;;;22.49;100.00
45939;BME280;31650;48.818;9.116;2023-08-12T13:48:03;98366.09;;;23.85;100.00
45939;BME280;31650;48.818;9.116;2023-08-12T14:03:04;98294.44;;;26.01;100.00
45939;BME280;31650;48.818;9.116;2023-08-12T14:18:04;98063.56;;;26.79;100.00
45939;BME280;31650;48.818;9.116;2023-08-12T14:33:05;98060.06;;;27.31;100.00
45939;BME280;31650;48.818;9.116;2023-08-12T14:48:06;98007.34;;;27.12;100.00
45939;BME280;31650;48.818;9.116;2023-08-12T15:03:07;98006.13;;;27.91;94.15
45939;BME280;31650;48.818;9.116;2023-08-12T15:18:07;97998.00;;;27.34;81.75
45939;BME280;31650;48.818;9.116;2023-08-12T15:33:08;98080.28;;;25.77;100.00
45939;BME280;31650;48.818;9.116;2023-08-12T15:48:08;98115.97;;;24.88;100.00
45939;BME280;31650;48.818;9.116;2023-08-12T16:03:08;98169.44;;;24.24;100.00
45939;BME280;31650;48.818;9.116;2023-08-12T16:18:09;98266.22;;;23.36;100.00
45939;BME280;31650;48.818;9.116;2023-08-12T16:33:10;98323.81;;;22.28;100.00
45939;BME280;31650;48.818;9.116;2023-08-12T16:48:11;98374.91;;;21.91;100.00
45939;BME280;31650;48.818;9.116;2023-08-12T17:03:12;98335.25;;;21.56;100.00
45939;BME280;31650;48.818;9.116;2023-08-12T17:18:12;98288.53;;;22.39;100.00
45939;BME280;31650;48.818;9.116;2023-08-12T17:33:13;98257.94;;;22.25;100.00
45939;BME280;31650;48.818;9.116;2023-08-12T17:48:13;98286.06;;;22.37;100.00
45939;BME280;31650;48.818;9.116;2023-08-12T18:03:14;98288.38;;;22.25;100.00
45939;BME280;31650;48.818;9.116;2023-08-12T18:18:14;98305.44;;;21.92;100.00
45939;BME280;31650;48.818;9.116;2023-08-12T18:33:14;98326.16;;;21.35;100.00
45939;BME280;31650;48.818;9.116;2023-08-12T18:48:15;98392.31;;;21.01;100.00
45939;BME280;31650;48.818;9.116;2023-08-12T19:03:15;98416.66;;;20.94;100.00
45939;BME280;31650;48.818;9.116;2023-08-12T19:18:16;98419.41;;;20.83;100.00
45939;BME280;31650;48.818;9.116;2023-08-12T19:33:19;98440.16;;;20.76;100.00
45939;BME280;31650;48.818;9.116;2023-08-12T19:48:19;98434.88;;;20.74;100.00
45939;BME280;31650;48.818;9.116;2023-08-12T20:03:20;98447.56;;;20.65;100.00
45939;BME280;31650;48.818;9.116;2023-08-12T20:18:20;98465.84;;;20.71;100.00
45939;BME280;31650;48.818;9.116;2023-08-12T20:33:21;98472.19;;;20.77;100.00
45939;BME280;31650;48.818;9.116;2023-08-12T20:48:21;98485.75;;;20.78;100.00
45939;BME280;31650;48.818;9.116;2023-08-12T21:03:22;98487.38;;;20.74;100.00
45939;BME280;31650;48.818;9.116;2023-08-12T21:18:22;98466.63;;;20.56;100.00
45939;BME280;31650;48.818;9.116;2023-08-12T21:33:24;98472.38;;;20.45;100.00
45939;BME280;31650;48.818;9.116;2023-08-12T21:48:24;98461.50;;;20.17;100.00
45939;BME280;31650;48.818;9.116;2023-08-12T22:03:25;98440.16;;;19.82;100.00
45939;BME280;31650;48.818;9.116;2023-08-12T22:18:25;98435.03;;;19.58;100.00
45939;BME280;31650;48.818;9.116;2023-08-12T22:33:26;98433.84;;;19.44;100.00
45939;BME280;31650;48.818;9.116;2023-08-12T22:48:26;98427.91;;;19.20;100.00
45939;BME280;31650;48.818;9.116;2023-08-12T23:03:26;98418.53;;;18.84;100.00
45939;BME280;31650;48.818;9.116;2023-08-12T23:18:27;98415.00;;;18.61;100.00
45939;BME280;31650;48.818;9.116;2023-08-12T23:33:27;98423.28;;;18.66;100.00
45939;BME280;31650;48.818;9.116;2023-08-12T23:48:28;98417.03;;;18.44;100.00
